createdAt,value
2024-01-15T00:00:23.567Z,22.27
2024-01-15T00:02:50.456Z,21.63
2024-01-15T00:05:17.308Z,23.07
2024-01-15T00:07:44.214Z,21.17
2024-01-15T00:10:11.269Z,20.87
2024-01-15T00:12:38.216Z,21.20
2024-01-15T00:15:06.096Z,17.17
2024-01-15T00:17:33.255Z,21.63
2024-01-15T00:20:00.165Z,18.33
2024-01-15T00:22:28.330Z,18.70
2024-01-15T00:24:55.326Z,23.63
2024-01-15T00:27:22.377Z,15.27
2024-01-15T00:29:49.341Z,14.93
2024-01-15T00:32:16.072Z,16.43
2024-01-15T00:34:43.970Z,14.57
2024-01-15T00:37:10.798Z,18.43
2024-01-15T00:39:37.898Z,16.47
2024-01-15T00:42:05.107Z,18.27
2024-01-15T00:44:32.020Z,15.17
2024-01-15T00:46:59.520Z,15.23
2024-01-15T00:49:28.316Z,19.70
2024-01-15T00:51:55.371Z,15.83
2024-01-15T00:54:22.377Z,16.93
2024-01-15T00:56:49.305Z,16.43
2024-01-15T00:59:16.352Z,14.97
2024-01-15T01:01:45.078Z,18.47
2024-01-15T01:04:12.160Z,18.47
2024-01-15T01:06:39.788Z,15.27
2024-01-15T01:09:06.837Z,14.63
2024-01-15T01:11:33.825Z,22.57
2024-01-15T01:14:01.831Z,13.23
2024-01-15T01:16:29.246Z,20.20
2024-01-15T01:18:56.219Z,17.40
2024-01-15T01:21:23.298Z,18.73
2024-01-15T01:23:50.603Z,24.30
2024-01-15T01:26:18.551Z,18.50
2024-01-15T01:28:45.651Z,19.80
2024-01-15T01:31:12.552Z,20.37
2024-01-15T01:33:41.596Z,18.23
2024-01-15T01:36:10.509Z,19.73
2024-01-15T01:38:38.230Z,17.60
2024-01-15T01:41:05.363Z,17.53
2024-01-15T01:43:32.273Z,20.00
2024-01-15T01:46:01.098Z,19.47
2024-01-15T01:48:28.919Z,18.97
2024-01-15T01:50:59.173Z,19.47
2024-01-15T01:53:30.563Z,16.80
2024-01-15T01:55:58.624Z,18.50
2024-01-15T01:58:26.822Z,21.00
2024-01-15T02:00:55.199Z,17.87
2024-01-15T02:03:22.517Z,19.93
2024-01-15T02:05:50.756Z,19.50
2024-01-15T02:08:18.116Z,18.30
2024-01-15T02:10:44.968Z,15.13
2024-01-15T02:13:12.123Z,20.57
2024-01-15T02:15:39.171Z,18.70
2024-01-15T02:18:08.948Z,23.03
2024-01-15T02:20:36.831Z,26.67
2024-01-15T02:23:10.578Z,20.70
2024-01-15T02:25:42.838Z,16.60
2024-01-15T02:28:11.437Z,17.97
2024-01-15T02:30:42.180Z,20.20
2024-01-15T02:33:11.022Z,19.60
2024-01-15T02:35:38.147Z,21.73
2024-01-15T02:38:06.311Z,20.20
2024-01-15T02:40:33.728Z,21.63
2024-01-15T02:43:00.660Z,18.13
2024-01-15T02:45:28.220Z,17.80
2024-01-15T02:47:55.066Z,17.13
2024-01-15T02:50:22.126Z,18.07
2024-01-15T02:52:48.969Z,17.03
2024-01-15T02:55:16.353Z,18.13
2024-01-15T02:57:43.323Z,17.13
2024-01-15T03:00:10.921Z,15.27
2024-01-15T03:02:48.384Z,18.10
2024-01-15T03:05:16.395Z,17.40
2024-01-15T03:07:43.893Z,16.43
2024-01-15T03:10:10.894Z,15.73
2024-01-15T03:12:37.852Z,14.57
2024-01-15T03:15:05.494Z,16.67
2024-01-15T03:17:32.725Z,15.47
2024-01-15T03:19:59.872Z,15.80
2024-01-15T03:22:26.695Z,16.80
2024-01-15T03:24:54.062Z,13.90
2024-01-15T03:27:20.934Z,17.37
2024-01-15T03:29:47.976Z,16.70
2024-01-15T03:32:17.127Z,14.00
2024-01-15T03:34:44.079Z,13.60
2024-01-15T03:37:10.892Z,15.27
2024-01-15T03:39:38.016Z,11.80
2024-01-15T03:42:05.772Z,19.23
2024-01-15T03:44:32.624Z,12.23
2024-01-15T03:46:59.714Z,17.70
2024-01-15T03:49:26.756Z,13.67
2024-01-15T03:51:53.853Z,15.93
2024-01-15T03:54:21.309Z,17.60
2024-01-15T03:56:48.345Z,14.20
2024-01-15T03:59:15.258Z,21.20
2024-01-15T04:01:42.890Z,12.80
2024-01-15T04:04:09.860Z,17.23
2024-01-15T04:06:37.099Z,18.60
2024-01-15T04:09:04.030Z,14.17
2024-01-15T04:11:30.893Z,17.33
2024-01-15T04:13:58.080Z,18.03
2024-01-15T04:16:24.835Z,17.47
2024-01-15T04:18:51.798Z,13.43
2024-01-15T04:21:19.590Z,15.10
2024-01-15T04:23:46.501Z,14.23
2024-01-15T04:26:13.467Z,14.87
2024-01-15T04:28:40.289Z,13.90
2024-01-15T04:31:07.397Z,13.57
2024-01-15T04:33:34.415Z,17.07
2024-01-15T04:36:06.492Z,14.57
2024-01-15T04:38:34.166Z,13.87
2024-01-15T04:41:01.331Z,14.83
2024-01-15T04:43:28.254Z,14.20
2024-01-15T04:45:55.143Z,11.00
2024-01-15T04:48:23.979Z,14.10
2024-01-15T04:50:51.488Z,18.03
2024-01-15T04:53:18.280Z,13.63
2024-01-15T04:55:45.195Z,14.00
2024-01-15T04:58:12.063Z,13.63
2024-01-15T05:00:39.149Z,14.47
2024-01-15T05:03:07.135Z,16.63
2024-01-15T05:05:33.997Z,17.47
2024-01-15T05:08:00.890Z,13.13
2024-01-15T05:10:28.287Z,17.77
2024-01-15T05:12:55.197Z,19.30
2024-01-15T05:15:21.968Z,12.97
2024-01-15T05:17:48.820Z,14.93
2024-01-15T05:20:15.923Z,16.60
2024-01-15T05:22:42.761Z,15.60
2024-01-15T05:25:09.616Z,17.77
2024-01-15T05:27:36.547Z,16.83
2024-01-15T05:30:04.000Z,13.23
2024-01-15T05:32:31.387Z,15.03
2024-01-15T05:34:58.206Z,15.70
2024-01-15T05:37:25.006Z,14.73
2024-01-15T05:39:51.938Z,18.97
2024-01-15T05:42:18.821Z,14.37
2024-01-15T05:44:45.593Z,15.30
2024-01-15T05:47:12.390Z,14.27
2024-01-15T05:49:39.829Z,15.60
2024-01-15T05:52:07.146Z,13.17
2024-01-15T05:54:34.008Z,16.67
2024-01-15T05:57:00.992Z,13.90
2024-01-15T05:59:28.121Z,15.43
2024-01-15T06:01:55.016Z,15.23
2024-01-15T06:04:22.040Z,14.80
2024-01-15T06:06:49.100Z,13.57
2024-01-15T06:09:16.149Z,13.20
2024-01-15T06:11:43.263Z,13.10
2024-01-15T06:14:10.298Z,12.30
2024-01-15T06:16:37.066Z,14.70
2024-01-15T06:19:04.279Z,13.70
2024-01-15T06:21:31.364Z,16.47
2024-01-15T06:23:58.284Z,14.43
2024-01-15T06:26:25.197Z,16.43
2024-01-15T06:28:52.152Z,15.63
2024-01-15T06:31:19.139Z,16.70
2024-01-15T06:33:48.609Z,14.93
2024-01-15T06:36:17.465Z,13.67
2024-01-15T06:38:45.205Z,14.40
2024-01-15T06:41:12.031Z,13.07
2024-01-15T06:43:39.008Z,13.63
2024-01-15T06:46:07.936Z,16.23
2024-01-15T06:48:35.970Z,13.53
2024-01-15T06:51:03.340Z,18.73
2024-01-15T06:53:30.187Z,14.10
2024-01-15T06:55:57.011Z,14.17
2024-01-15T06:58:23.976Z,17.13
2024-01-15T07:00:51.192Z,14.70
2024-01-15T07:03:18.137Z,17.20
2024-01-15T07:05:45.214Z,14.43
2024-01-15T07:08:12.012Z,20.50
2024-01-15T07:10:38.746Z,18.70
2024-01-15T07:13:06.718Z,22.87
2024-01-15T07:15:33.886Z,31.20
2024-01-15T07:18:00.753Z,23.00
2024-01-15T07:20:28.162Z,16.30
2024-01-15T07:22:55.130Z,17.03
2024-01-15T07:25:21.999Z,26.40
2024-01-15T07:27:49.527Z,19.67
2024-01-15T07:30:16.759Z,15.60
2024-01-15T07:32:43.847Z,14.93
2024-01-15T07:35:11.499Z,15.00
2024-01-15T07:37:38.459Z,15.17
2024-01-15T07:40:06.966Z,17.73
2024-01-15T07:42:34.049Z,19.50
2024-01-15T07:45:01.787Z,18.47
2024-01-15T07:47:32.136Z,17.83
2024-01-15T07:50:03.111Z,19.73
2024-01-15T07:52:32.633Z,21.50
2024-01-15T07:55:04.682Z,19.47
2024-01-15T07:57:32.159Z,16.20
2024-01-15T07:59:59.209Z,17.63
2024-01-15T08:02:25.988Z,15.07
2024-01-15T08:04:52.948Z,16.23
2024-01-15T08:07:19.840Z,18.83
2024-01-15T08:09:49.118Z,21.00
2024-01-15T08:12:16.297Z,16.33
2024-01-15T08:14:43.187Z,15.83
2024-01-15T08:17:10.049Z,17.17
2024-01-15T08:19:37.768Z,18.77
2024-01-15T08:22:04.683Z,25.80
2024-01-15T08:24:32.691Z,26.20
2024-01-15T08:26:59.886Z,20.27
2024-01-15T08:29:27.084Z,25.23
2024-01-15T08:31:54.090Z,19.77
2024-01-15T08:34:21.122Z,19.13
2024-01-15T08:36:48.120Z,21.33
2024-01-15T08:39:15.244Z,15.97
2024-01-15T08:41:42.147Z,23.00
2024-01-15T08:44:09.030Z,18.77
2024-01-15T08:46:35.942Z,18.33
2024-01-15T08:49:04.610Z,15.90
2024-01-15T08:51:31.668Z,19.03
2024-01-15T08:53:59.288Z,18.00
2024-01-15T08:56:26.189Z,15.10
2024-01-15T08:58:52.970Z,19.07
2024-01-15T09:01:20.257Z,19.63
2024-01-15T09:03:47.800Z,15.87
2024-01-15T09:06:14.911Z,20.70
2024-01-15T09:08:45.673Z,15.73
2024-01-15T09:11:13.368Z,15.20
2024-01-15T09:13:40.939Z,18.03
2024-01-15T09:16:08.438Z,17.90
2024-01-15T09:18:36.406Z,12.40
2024-01-15T09:21:04.633Z,15.13
2024-01-15T09:23:31.371Z,17.23
2024-01-15T09:25:58.186Z,14.03
2024-01-15T09:28:25.003Z,20.67
2024-01-15T09:30:51.958Z,20.23
2024-01-15T09:33:18.989Z,14.17
2024-01-15T09:35:46.368Z,15.10
2024-01-15T09:38:13.343Z,12.63
2024-01-15T09:40:46.448Z,14.63
2024-01-15T09:43:15.156Z,13.73
2024-01-15T09:45:42.595Z,15.03
2024-01-15T09:48:09.620Z,17.13
2024-01-15T09:50:36.688Z,14.20
2024-01-15T09:53:05.625Z,12.47
2024-01-15T09:55:33.976Z,13.07
2024-01-15T09:58:03.060Z,14.47
2024-01-15T10:00:31.005Z,12.43
2024-01-15T10:02:58.053Z,10.53
2024-01-15T10:05:25.176Z,11.67
2024-01-15T10:07:54.414Z,16.63
2024-01-15T10:10:23.017Z,12.50
2024-01-15T10:12:51.081Z,10.50
2024-01-15T10:15:19.180Z,12.13
2024-01-15T10:17:46.296Z,12.07
2024-01-15T10:20:13.629Z,10.73
2024-01-15T10:22:44.459Z,16.33
2024-01-15T10:25:12.743Z,12.30
2024-01-15T10:27:41.474Z,14.97
2024-01-15T10:30:10.311Z,12.03
2024-01-15T10:32:37.778Z,13.47
2024-01-15T10:35:05.482Z,13.67
2024-01-15T10:37:34.551Z,12.27
2024-01-15T10:40:06.416Z,11.50
2024-01-15T10:42:33.626Z,12.37
2024-01-15T10:45:00.629Z,9.63
2024-01-15T10:47:27.866Z,17.57
2024-01-15T10:49:54.863Z,11.63
2024-01-15T10:52:26.110Z,15.33
2024-01-15T10:54:54.461Z,11.23
2024-01-15T10:57:23.585Z,9.57
2024-01-15T10:59:50.589Z,9.13
2024-01-15T11:02:17.904Z,10.67
2024-01-15T11:04:44.928Z,9.60
2024-01-15T11:07:13.327Z,9.03
2024-01-15T11:09:40.454Z,9.33
2024-01-15T11:12:10.511Z,12.27
2024-01-15T11:14:49.373Z,9.43
2024-01-15T11:17:18.508Z,9.07
2024-01-15T11:19:53.771Z,9.53
2024-01-15T11:22:30.396Z,7.67
2024-01-15T11:24:58.967Z,9.10
2024-01-15T11:27:48.709Z,8.50
2024-01-15T11:30:15.926Z,8.03
2024-01-15T11:32:43.876Z,9.07
2024-01-15T11:35:11.785Z,8.27
2024-01-15T11:38:08.551Z,8.90
2024-01-15T11:40:35.379Z,8.87
2024-01-15T11:43:04.048Z,8.20
2024-01-15T11:45:32.466Z,9.30
2024-01-15T11:48:16.190Z,12.40
2024-01-15T11:50:46.301Z,10.97
2024-01-15T11:53:33.364Z,11.93
2024-01-15T11:56:03.497Z,11.47
2024-01-15T11:58:31.755Z,8.43
2024-01-15T12:00:59.302Z,10.27
2024-01-15T12:03:26.442Z,9.23
2024-01-15T12:05:53.933Z,9.83
2024-01-15T12:08:24.951Z,8.73
2024-01-15T12:10:52.734Z,12.87
2024-01-15T12:13:21.360Z,14.33
2024-01-15T12:15:49.474Z,11.10
2024-01-15T12:18:20.649Z,11.77
2024-01-15T12:20:48.632Z,9.63
2024-01-15T12:23:17.672Z,14.53
2024-01-15T12:25:44.735Z,15.30
2024-01-15T12:28:11.758Z,11.83
2024-01-15T12:30:40.673Z,10.60
2024-01-15T12:33:09.185Z,9.00
2024-01-15T12:35:37.647Z,14.50
2024-01-15T12:38:05.145Z,10.97
2024-01-15T12:40:33.834Z,9.47
2024-01-15T12:43:01.976Z,10.10
2024-01-15T12:45:29.198Z,20.63
2024-01-15T12:47:56.588Z,11.83
2024-01-15T12:50:26.791Z,10.20
2024-01-15T12:52:53.666Z,9.43
2024-01-15T12:55:20.994Z,9.90
2024-01-15T12:57:48.079Z,9.73
2024-01-15T13:00:16.305Z,11.30
2024-01-15T13:02:44.871Z,9.60
2024-01-15T13:05:14.523Z,11.00
2024-01-15T13:07:45.033Z,9.90
2024-01-15T13:10:15.842Z,9.93
2024-01-15T13:12:43.157Z,8.17
2024-01-15T13:15:15.075Z,9.80
2024-01-15T13:17:47.309Z,9.57
2024-01-15T13:20:14.851Z,7.73
2024-01-15T13:22:45.335Z,10.77
2024-01-15T13:25:12.788Z,9.23
2024-01-15T13:27:40.495Z,9.37
2024-01-15T13:30:09.894Z,9.50
2024-01-15T13:32:37.360Z,10.60
2024-01-15T13:35:06.882Z,9.07
2024-01-15T13:37:34.223Z,10.00
2024-01-15T13:40:01.340Z,9.97
2024-01-15T13:42:30.210Z,9.53
2024-01-15T13:44:57.095Z,9.30
2024-01-15T13:47:25.376Z,8.87
2024-01-15T13:49:52.296Z,10.47
2024-01-15T13:52:22.006Z,10.70
2024-01-15T13:54:51.386Z,7.33
2024-01-15T13:57:21.577Z,8.40
2024-01-15T13:59:50.537Z,10.03
2024-01-15T14:02:20.649Z,14.97
2024-01-15T14:04:50.417Z,12.10
2024-01-15T14:07:18.312Z,19.13
2024-01-15T14:09:45.538Z,12.83
2024-01-15T14:12:13.165Z,9.97
2024-01-15T14:14:41.247Z,12.93
2024-01-15T14:17:10.846Z,18.43
2024-01-15T14:19:38.116Z,13.73
2024-01-15T14:22:05.210Z,11.40
2024-01-15T14:24:32.128Z,9.07
2024-01-15T14:26:59.655Z,9.03
2024-01-15T14:29:27.566Z,10.53
2024-01-15T14:31:54.921Z,15.77
2024-01-15T14:34:25.019Z,12.10
2024-01-15T14:36:55.335Z,12.57
2024-01-15T14:39:25.723Z,10.00
2024-01-15T14:41:53.562Z,8.93
2024-01-15T14:44:20.488Z,6.80
2024-01-15T14:46:47.549Z,7.70
2024-01-15T14:49:15.771Z,7.63
2024-01-15T14:51:43.686Z,5.87
2024-01-15T14:54:11.801Z,5.43
2024-01-15T14:56:39.602Z,8.80
2024-01-15T14:59:06.442Z,9.30
2024-01-15T15:01:33.640Z,6.47
2024-01-15T15:04:01.096Z,8.80
2024-01-15T15:06:29.033Z,7.40
2024-01-15T15:08:59.825Z,10.67
2024-01-15T15:11:29.883Z,7.33
2024-01-15T15:13:56.735Z,7.97
2024-01-15T15:16:23.789Z,6.67
2024-01-15T15:18:56.259Z,7.80
2024-01-15T15:21:32.034Z,5.87
2024-01-15T15:23:58.986Z,8.27
2024-01-15T15:26:25.961Z,9.67
2024-01-15T15:28:53.120Z,6.27
2024-01-15T15:31:26.216Z,10.07
2024-01-15T15:33:54.252Z,6.17
2024-01-15T15:36:21.377Z,9.33
2024-01-15T15:38:49.734Z,6.13
2024-01-15T15:41:16.733Z,6.07
2024-01-15T15:43:43.681Z,7.73
2024-01-15T15:46:10.822Z,5.53
2024-01-15T15:48:37.864Z,8.00
2024-01-15T15:51:05.006Z,10.13
2024-01-15T15:53:32.006Z,8.97
2024-01-15T15:55:59.655Z,6.07
2024-01-15T15:58:27.397Z,10.17
2024-01-15T16:00:54.641Z,12.97
2024-01-15T16:03:21.791Z,8.00
2024-01-15T16:05:52.571Z,9.80
2024-01-15T16:08:21.496Z,9.87
2024-01-15T16:10:53.201Z,6.93
2024-01-15T16:13:20.762Z,8.97
2024-01-15T16:15:48.289Z,9.73
2024-01-15T16:23:19.812Z,11.47
2024-01-15T16:23:34.625Z,9.07
2024-01-15T16:24:11.505Z,10.87
2024-01-15T16:26:38.797Z,11.40
2024-01-15T16:29:06.570Z,10.27
2024-01-15T16:31:33.414Z,11.10
2024-01-15T16:34:05.113Z,8.70
2024-01-15T16:36:34.409Z,10.53
2024-01-15T16:39:01.999Z,5.87
2024-01-15T16:41:29.530Z,6.67
2024-01-15T16:43:56.670Z,5.50
2024-01-15T16:46:23.621Z,8.83
2024-01-15T16:48:51.152Z,7.00
2024-01-15T16:51:18.544Z,12.93
2024-01-15T16:53:46.531Z,7.43
2024-01-15T16:56:13.763Z,8.43
2024-01-15T16:58:40.870Z,6.00
2024-01-15T17:01:09.412Z,6.63
2024-01-15T17:03:36.458Z,7.27
2024-01-15T17:06:03.941Z,10.13
2024-01-15T17:08:31.579Z,5.27
2024-01-15T17:11:00.665Z,10.67
2024-01-15T17:13:29.079Z,7.77
2024-01-15T17:15:56.149Z,8.53
2024-01-15T17:18:23.421Z,10.10
2024-01-15T17:20:50.407Z,7.90
2024-01-15T17:23:17.303Z,7.57
2024-01-15T17:25:44.104Z,6.80
2024-01-15T17:28:11.017Z,8.40
2024-01-15T17:30:37.943Z,9.13
2024-01-15T17:33:05.528Z,8.60
2024-01-15T17:35:32.575Z,6.70
2024-01-15T17:37:59.509Z,10.37
2024-01-15T17:40:27.073Z,6.23
2024-01-15T17:42:53.835Z,7.47
2024-01-15T17:45:20.861Z,6.87
2024-01-15T17:47:50.340Z,5.20
2024-01-15T17:50:19.870Z,6.57
2024-01-15T17:52:46.752Z,9.40
2024-01-15T17:55:13.827Z,8.50
2024-01-15T17:57:41.779Z,5.97
2024-01-15T18:00:08.896Z,8.17
2024-01-15T18:02:36.085Z,7.43
2024-01-15T18:05:04.273Z,6.00
2024-01-15T18:07:31.304Z,5.67
2024-01-15T18:09:59.122Z,8.37
2024-01-15T18:12:27.015Z,9.83
2024-01-15T18:14:54.752Z,9.33
2024-01-15T18:17:25.306Z,7.27
2024-01-15T18:19:52.266Z,8.80
2024-01-15T18:22:19.619Z,8.40
2024-01-15T18:24:48.639Z,8.33
2024-01-15T18:27:22.428Z,6.10
2024-01-15T18:29:59.698Z,6.67
2024-01-15T18:32:52.185Z,7.67
2024-01-15T18:35:23.280Z,9.37
2024-01-15T18:38:01.404Z,8.20
2024-01-15T18:40:40.529Z,8.63
2024-01-15T18:43:10.241Z,8.87
2024-01-15T18:45:39.244Z,9.83
2024-01-15T18:48:08.325Z,9.70
2024-01-15T18:50:35.487Z,10.37
2024-01-15T18:53:04.175Z,7.03
2024-01-15T18:55:31.630Z,7.33
2024-01-15T18:58:00.696Z,9.27
2024-01-15T19:00:30.454Z,5.40
2024-01-15T19:02:59.292Z,8.87
2024-01-15T19:05:26.721Z,7.00
2024-01-15T19:07:57.126Z,5.93
2024-01-15T19:10:24.144Z,8.73
2024-01-15T19:12:51.127Z,9.70
2024-01-15T19:15:20.302Z,16.93
2024-01-15T19:17:50.074Z,11.80
2024-01-15T19:20:18.303Z,10.57
2024-01-15T19:22:45.207Z,8.23
2024-01-15T19:25:13.913Z,12.97
2024-01-15T19:27:45.675Z,10.13
2024-01-15T19:30:15.324Z,12.00
2024-01-15T19:32:42.203Z,6.97
2024-01-15T19:35:11.881Z,10.60
2024-01-15T19:37:39.045Z,11.50
2024-01-15T19:40:07.759Z,10.43
2024-01-15T19:42:34.645Z,12.80
2024-01-15T19:45:01.595Z,8.43
2024-01-15T19:47:31.417Z,12.10
2024-01-15T19:49:59.189Z,9.03
2024-01-15T19:52:26.244Z,8.97
2024-01-15T19:54:53.298Z,12.33
2024-01-15T19:57:20.343Z,12.27
2024-01-15T19:59:49.324Z,7.17
2024-01-15T20:02:16.427Z,7.47
2024-01-15T20:04:43.915Z,6.33
2024-01-15T20:07:11.303Z,8.30
2024-01-15T20:09:42.374Z,7.60
2024-01-15T20:12:14.098Z,12.13
2024-01-15T20:14:41.252Z,5.47
2024-01-15T20:17:08.388Z,7.90
2024-01-15T20:19:36.119Z,7.87
2024-01-15T20:22:12.071Z,6.83
2024-01-15T20:24:39.003Z,7.73
2024-01-15T20:27:07.072Z,7.93
2024-01-15T20:29:35.598Z,10.47
2024-01-15T20:32:03.347Z,4.63
2024-01-15T20:34:30.552Z,9.23
2024-01-15T20:36:57.384Z,10.53
2024-01-15T20:39:24.146Z,4.73
2024-01-15T20:41:59.314Z,8.43
2024-01-15T20:44:35.077Z,9.63
2024-01-15T20:47:04.648Z,10.07
2024-01-15T20:49:31.588Z,8.83
2024-01-15T20:52:05.485Z,6.03
2024-01-15T20:54:34.547Z,5.27
2024-01-15T20:57:04.150Z,5.20
2024-01-15T20:59:39.721Z,3.77
2024-01-15T21:02:18.959Z,13.50
2024-01-15T21:04:45.927Z,14.87
2024-01-15T21:07:21.939Z,4.80
2024-01-15T21:10:18.798Z,8.10
2024-01-15T21:13:17.524Z,7.83
2024-01-15T21:15:54.194Z,7.10
2024-01-15T21:18:25.319Z,7.00
2024-01-15T21:20:53.073Z,3.67
2024-01-15T21:23:29.527Z,4.10
2024-01-15T21:25:58.662Z,6.63
2024-01-15T21:28:25.975Z,8.87
2024-01-15T21:30:53.727Z,7.70
2024-01-15T21:33:20.839Z,8.00
2024-01-15T21:35:48.649Z,3.57
2024-01-15T21:38:17.798Z,5.47
2024-01-15T21:40:49.138Z,6.20
2024-01-15T21:43:16.177Z,5.87
2024-01-15T21:45:47.941Z,5.43
2024-01-15T21:48:17.496Z,6.17
2024-01-15T21:50:48.213Z,5.93
2024-01-15T21:53:17.738Z,5.67
2024-01-15T21:55:45.321Z,7.97
2024-01-15T21:58:15.077Z,5.63
2024-01-15T22:00:56.390Z,9.57
2024-01-15T22:03:23.772Z,7.00
2024-01-15T22:05:52.360Z,6.53
2024-01-15T22:08:20.377Z,4.27
2024-01-15T22:10:47.348Z,6.03
2024-01-15T22:13:14.211Z,4.20
2024-01-15T22:15:46.178Z,4.30
2024-01-15T22:18:13.862Z,4.70
2024-01-15T22:20:41.148Z,7.53
2024-01-15T22:23:08.072Z,7.03
2024-01-15T22:25:35.795Z,5.83
2024-01-15T22:28:05.020Z,5.57
2024-01-15T22:30:31.925Z,3.87
2024-01-15T22:32:58.831Z,7.57
2024-01-15T22:35:30.164Z,5.47
2024-01-15T22:37:57.097Z,4.60
2024-01-15T22:40:24.200Z,7.40
2024-01-15T22:42:51.277Z,5.27
2024-01-15T22:45:18.513Z,6.67
2024-01-15T22:47:46.669Z,5.17
2024-01-15T22:50:15.523Z,4.70
2024-01-15T22:52:45.100Z,6.47
2024-01-15T22:55:12.136Z,4.07
2024-01-15T22:57:39.027Z,9.67
2024-01-15T23:00:19.554Z,5.80
2024-01-15T23:02:48.118Z,4.03
2024-01-15T23:05:18.902Z,5.17
2024-01-15T23:07:52.012Z,5.87
2024-01-15T23:10:21.991Z,6.57
2024-01-15T23:12:57.389Z,5.30
2024-01-15T23:15:28.345Z,10.47
2024-01-15T23:17:57.493Z,7.53
2024-01-15T23:20:28.013Z,6.93
2024-01-15T23:22:54.872Z,10.10
2024-01-15T23:25:22.103Z,11.43
2024-01-15T23:27:51.750Z,5.37
2024-01-15T23:30:18.896Z,4.93
2024-01-15T23:32:49.756Z,6.87
2024-01-15T23:35:17.249Z,4.70
2024-01-15T23:37:44.258Z,5.57
2024-01-15T23:40:14.002Z,5.23
2024-01-15T23:42:40.998Z,6.53
2024-01-15T23:45:08.618Z,7.10
2024-01-15T23:47:35.939Z,6.00
2024-01-15T23:50:04.525Z,5.37
2024-01-15T23:52:36.615Z,3.93
2024-01-15T23:55:06.622Z,5.47
2024-01-15T23:57:33.444Z,5.37
